Juan Couste, Argentina
Current Conditions -  °F | °C
As of 7:00 PM on Monday 20 Oct 2014 (Local Time) from SAZN Reporting Station
Clear Clear  
Wind Chill: 79°   Ceiling: Unl
Heat Index: 79°   Visibility: 6mi
Dew Point: 45°   Wind: 8mph
Humidity: 30%   Direction: 230°SW
Pressure: 29.85"   Gusts: NA
Location:  38.91°S, 63.25°W
Report Text: SAZN 202200Z 23007KT CAVOK 26/07 Q1011
Loading
Personal Weather Stations






























Interactive Weather Map
Tropical Storm Tracking
New forecast layout! Learn more

10-Day Weather Forecast

Advertisements
Track Severe Weather on mobile